createdAt,value
2023-02-19T00:01:47.664Z,1.55
2023-02-19T00:04:18.136Z,1.80
2023-02-19T00:06:47.185Z,2.80
2023-02-19T00:09:16.695Z,3.60
2023-02-19T00:11:45.052Z,2.35
2023-02-19T00:14:17.417Z,1.95
2023-02-19T00:16:44.699Z,1.90
2023-02-19T00:19:17.312Z,2.47
2023-02-19T00:21:44.515Z,1.67
2023-02-19T00:24:13.250Z,3.58
2023-02-19T00:26:42.421Z,2.13
2023-02-19T00:29:15.636Z,2.05
2023-02-19T00:31:44.116Z,1.85
2023-02-19T00:34:12.755Z,1.90
2023-02-19T00:36:41.683Z,1.88
2023-02-19T00:39:11.347Z,1.40
2023-02-19T00:41:38.617Z,1.20
2023-02-19T00:44:08.151Z,1.40
2023-02-19T00:46:47.387Z,1.90
2023-02-19T00:49:22.430Z,1.48
2023-02-19T00:51:51.559Z,1.98
2023-02-19T00:54:18.992Z,2.38
2023-02-19T00:56:46.480Z,2.72
2023-02-19T00:59:14.409Z,2.38
2023-02-19T01:01:44.369Z,2.35
2023-02-19T01:04:11.963Z,2.00
2023-02-19T01:06:39.305Z,2.55
2023-02-19T01:09:07.876Z,1.73
2023-02-19T01:11:35.591Z,2.03
2023-02-19T01:14:03.656Z,2.22
2023-02-19T01:16:31.432Z,1.40
2023-02-19T01:18:59.450Z,2.60
2023-02-19T01:21:28.448Z,2.03
2023-02-19T01:23:56.842Z,2.35
2023-02-19T01:26:29.147Z,3.17
2023-02-19T01:28:57.182Z,2.45
2023-02-19T01:31:25.860Z,1.67
2023-02-19T01:33:58.958Z,5.13
2023-02-19T01:36:27.653Z,1.60
2023-02-19T01:38:55.716Z,2.20
2023-02-19T01:41:26.561Z,2.10
2023-02-19T01:43:59.574Z,2.53
2023-02-19T01:46:29.357Z,2.80
2023-02-19T01:49:01.253Z,2.05
2023-02-19T01:51:30.281Z,2.22
2023-02-19T01:54:00.887Z,1.92
2023-02-19T01:56:30.368Z,1.60
2023-02-19T01:58:59.242Z,3.15
2023-02-19T02:01:26.554Z,1.90
2023-02-19T02:03:54.112Z,2.17
2023-02-19T02:06:25.050Z,2.60
2023-02-19T02:09:14.034Z,1.45
2023-02-19T02:11:48.768Z,1.52
2023-02-19T02:14:22.197Z,3.35
2023-02-19T02:17:15.989Z,2.80
2023-02-19T02:19:55.081Z,2.58
2023-02-19T02:23:03.366Z,2.85
2023-02-19T02:25:52.494Z,2.45
2023-02-19T02:28:36.209Z,1.60
2023-02-19T02:31:12.378Z,2.67
2023-02-19T02:33:59.786Z,1.73
2023-02-19T02:36:30.030Z,2.05
2023-02-19T02:38:58.499Z,2.30
2023-02-19T02:41:26.853Z,1.67
2023-02-19T02:43:54.817Z,3.53
2023-02-19T02:46:28.336Z,2.33
2023-02-19T02:49:05.514Z,1.77
2023-02-19T02:51:41.505Z,2.25
2023-02-19T02:54:41.314Z,2.08
2023-02-19T02:57:14.969Z,2.05
2023-02-19T02:59:56.595Z,2.67
2023-02-19T03:02:28.698Z,1.98
2023-02-19T03:05:34.367Z,3.35
2023-02-19T03:08:10.264Z,2.00
2023-02-19T03:10:48.125Z,1.83
2023-02-19T03:13:53.916Z,1.80
2023-02-19T03:16:45.822Z,2.42
2023-02-19T03:19:19.307Z,2.00
2023-02-19T03:22:10.230Z,2.05
2023-02-19T03:25:09.204Z,1.88
2023-02-19T03:27:38.920Z,1.48
2023-02-19T03:30:13.030Z,3.05
2023-02-19T03:32:53.426Z,1.58
2023-02-19T03:35:28.200Z,1.90
2023-02-19T03:38:32.208Z,1.20
2023-02-19T03:44:13.490Z,1.20
2023-02-19T03:46:57.043Z,1.45
2023-02-19T03:49:55.797Z,1.58
2023-02-19T03:52:26.225Z,1.60
2023-02-19T03:55:03.294Z,2.33
2023-02-19T03:57:37.534Z,1.63
2023-02-19T04:00:13.470Z,1.42
2023-02-19T04:03:00.780Z,1.52
2023-02-19T04:05:37.164Z,1.40
2023-02-19T04:08:26.293Z,1.63
2023-02-19T04:11:00.576Z,1.98
2023-02-19T04:13:32.930Z,1.50
2023-02-19T04:16:04.985Z,1.92
2023-02-19T04:18:36.408Z,1.80
2023-02-19T04:21:05.656Z,1.75
2023-02-19T04:23:38.377Z,1.52
2023-02-19T04:26:08.087Z,1.30
2023-02-19T04:28:35.787Z,1.63
2023-02-19T04:31:03.113Z,1.52
2023-02-19T04:33:30.504Z,1.50
2023-02-19T04:35:57.785Z,1.63
2023-02-19T04:38:25.015Z,1.00
2023-02-19T04:40:52.358Z,1.60
2023-02-19T04:43:19.914Z,1.42
2023-02-19T04:45:47.222Z,1.45
2023-02-19T04:48:14.989Z,1.20
2023-02-19T04:50:42.224Z,1.13
2023-02-19T04:53:09.515Z,1.33
2023-02-19T04:55:38.505Z,1.52
2023-02-19T04:58:05.888Z,0.80
2023-02-19T05:00:34.177Z,1.45
2023-02-19T05:03:01.713Z,1.70
2023-02-19T05:05:29.183Z,0.85
2023-02-19T05:07:56.432Z,1.00
2023-02-19T05:10:23.779Z,1.00
2023-02-19T05:12:51.073Z,1.00
2023-02-19T05:15:18.383Z,1.23
2023-02-19T05:17:45.702Z,1.42
2023-02-19T05:20:14.097Z,0.95
2023-02-19T05:22:41.360Z,1.10
2023-02-19T05:25:08.680Z,0.93
2023-02-19T05:27:35.948Z,0.90
2023-02-19T05:30:03.384Z,1.08
2023-02-19T05:32:30.798Z,0.80
2023-02-19T05:34:58.099Z,0.70
2023-02-19T05:37:25.492Z,0.80
2023-02-19T05:39:52.815Z,0.93
2023-02-19T05:42:20.063Z,1.20
2023-02-19T05:44:47.259Z,0.90
2023-02-19T05:47:14.479Z,1.00
2023-02-19T05:49:41.726Z,0.90
2023-02-19T05:52:08.972Z,0.63
2023-02-19T05:54:36.178Z,0.80
2023-02-19T05:57:03.508Z,0.65
2023-02-19T05:59:30.986Z,0.90
2023-02-19T06:01:58.592Z,0.80
2023-02-19T06:04:25.856Z,0.80
2023-02-19T06:06:53.111Z,0.63
2023-02-19T06:09:20.366Z,0.57
2023-02-19T06:11:47.809Z,0.70
2023-02-19T06:14:15.051Z,0.73
2023-02-19T06:16:42.629Z,0.73
2023-02-19T06:19:09.925Z,0.80
2023-02-19T06:21:37.336Z,0.95
2023-02-19T06:24:08.965Z,0.55
2023-02-19T06:26:36.598Z,0.60
2023-02-19T06:29:04.604Z,0.80
2023-02-19T06:31:32.138Z,0.85
2023-02-19T06:33:59.405Z,0.70
2023-02-19T06:36:26.709Z,0.85
2023-02-19T06:38:53.969Z,0.70
2023-02-19T06:41:21.180Z,1.25
2023-02-19T06:43:48.559Z,1.25
2023-02-19T06:46:15.913Z,1.08
2023-02-19T06:48:45.085Z,0.85
2023-02-19T06:51:26.443Z,0.75
2023-02-19T06:53:53.923Z,1.08
2023-02-19T06:56:27.184Z,0.80
2023-02-19T06:58:56.006Z,0.90
2023-02-19T07:01:24.492Z,0.80
2023-02-19T07:03:52.809Z,0.90
2023-02-19T07:06:22.015Z,0.75
2023-02-19T07:08:50.512Z,1.10
2023-02-19T07:11:18.786Z,0.98
2023-02-19T07:13:46.601Z,0.68
2023-02-19T07:16:14.437Z,0.70
2023-02-19T07:18:41.761Z,1.10
2023-02-19T07:21:12.540Z,1.48
2023-02-19T07:23:40.680Z,0.80
2023-02-19T07:26:17.226Z,1.02
2023-02-19T07:28:46.734Z,1.13
2023-02-19T07:31:15.472Z,0.95
2023-02-19T07:33:44.721Z,0.60
2023-02-19T07:36:13.601Z,0.65
2023-02-19T07:38:40.859Z,0.88
2023-02-19T07:41:08.131Z,0.50
2023-02-19T07:43:37.523Z,0.82
2023-02-19T07:46:10.673Z,0.85
2023-02-19T07:48:39.459Z,0.70
2023-02-19T07:51:08.762Z,0.77
2023-02-19T07:53:36.445Z,1.33
2023-02-19T07:56:06.089Z,0.93
2023-02-19T07:58:34.508Z,0.70
2023-02-19T08:01:40.497Z,0.73
2023-02-19T08:04:07.979Z,0.38
2023-02-19T08:06:35.300Z,0.90
2023-02-19T08:09:03.498Z,0.77
2023-02-19T08:11:49.308Z,0.80
2023-02-19T08:14:16.701Z,1.10
2023-02-19T08:16:53.611Z,0.75
2023-02-19T08:19:21.529Z,0.93
2023-02-19T08:21:48.831Z,0.90
2023-02-19T08:24:16.174Z,1.35
2023-02-19T08:26:43.488Z,1.08
2023-02-19T08:29:10.816Z,1.48
2023-02-19T08:31:38.317Z,0.90
2023-02-19T08:34:05.634Z,0.52
2023-02-19T08:36:32.939Z,0.90
2023-02-19T08:39:00.354Z,0.63
2023-02-19T08:41:28.235Z,1.02
2023-02-19T08:43:55.467Z,0.70
2023-02-19T08:46:22.936Z,0.70
2023-02-19T08:48:50.398Z,0.88
2023-02-19T08:51:17.692Z,0.60
2023-02-19T08:53:45.016Z,0.77
2023-02-19T08:56:15.068Z,0.65
2023-02-19T08:58:42.430Z,0.80
2023-02-19T09:01:12.239Z,0.93
2023-02-19T09:03:40.611Z,0.55
2023-02-19T09:06:08.697Z,2.17
2023-02-19T09:08:36.303Z,0.90
2023-02-19T09:11:07.043Z,1.80
2023-02-19T09:13:34.448Z,0.70
2023-02-19T09:16:04.579Z,1.02
2023-02-19T09:18:32.135Z,1.00
2023-02-19T09:21:04.792Z,0.57
2023-02-19T09:23:36.730Z,0.60
2023-02-19T09:26:08.671Z,0.60
2023-02-19T09:28:36.688Z,0.50
2023-02-19T09:31:07.700Z,0.70
2023-02-19T09:33:35.500Z,0.60
2023-02-19T09:36:03.660Z,0.70
2023-02-19T09:38:31.116Z,0.82
2023-02-19T09:41:00.179Z,0.55
2023-02-19T09:43:29.965Z,0.50
2023-02-19T09:46:13.136Z,0.70
2023-02-19T09:48:40.345Z,0.60
2023-02-19T09:51:10.267Z,1.48
2023-02-19T09:53:44.353Z,0.65
2023-02-19T09:56:11.580Z,0.70
2023-02-19T09:58:48.823Z,0.60
2023-02-19T10:01:16.150Z,0.90
2023-02-19T10:03:48.689Z,0.70
2023-02-19T10:06:24.846Z,0.40
2023-02-19T10:08:56.324Z,0.50
2023-02-19T10:11:26.279Z,0.40
2023-02-19T10:14:12.647Z,0.50
2023-02-19T10:16:43.376Z,0.40
2023-02-19T10:19:12.459Z,0.50
2023-02-19T10:21:40.198Z,0.50
2023-02-19T10:24:08.275Z,0.43
2023-02-19T10:26:36.864Z,0.40
2023-02-19T10:29:05.200Z,0.52
2023-02-19T10:31:33.519Z,0.32
2023-02-19T10:34:02.477Z,0.43
2023-02-19T10:36:41.833Z,0.40
2023-02-19T10:39:39.600Z,0.40
2023-02-19T10:42:13.841Z,0.40
2023-02-19T10:44:45.685Z,0.60
2023-02-19T10:47:19.301Z,0.43
2023-02-19T10:49:48.923Z,0.50
2023-02-19T10:52:25.976Z,0.40
2023-02-19T10:54:56.876Z,0.40
2023-02-19T10:57:33.087Z,0.68
2023-02-19T11:00:19.652Z,0.40
2023-02-19T11:02:46.952Z,0.30
2023-02-19T11:05:20.002Z,0.40
2023-02-19T11:07:48.979Z,0.40
2023-02-19T11:10:26.732Z,0.47
2023-02-19T11:13:03.384Z,0.40
2023-02-19T11:15:35.994Z,0.40
2023-02-19T11:18:12.468Z,0.70
2023-02-19T11:21:01.708Z,0.50
2023-02-19T11:23:36.672Z,0.40
2023-02-19T11:26:06.999Z,0.47
2023-02-19T11:28:40.947Z,0.28
2023-02-19T11:31:20.629Z,0.50
2023-02-19T11:33:57.536Z,0.47
2023-02-19T11:36:31.801Z,0.55
2023-02-19T11:39:05.477Z,0.40
2023-02-19T11:41:56.986Z,0.50
2023-02-19T11:44:47.250Z,0.45
2023-02-19T11:47:39.172Z,0.38
2023-02-19T11:50:31.868Z,0.47
2023-02-19T11:53:27.384Z,0.45
2023-02-19T11:56:02.270Z,0.93
2023-02-19T11:58:54.021Z,0.30
2023-02-19T12:01:26.870Z,0.30
2023-02-19T12:04:06.118Z,0.40
2023-02-19T12:06:36.358Z,0.43
2023-02-19T12:09:44.012Z,0.30
2023-02-19T12:12:24.415Z,0.35
2023-02-19T12:15:29.366Z,0.32
2023-02-19T12:18:04.262Z,0.50
2023-02-19T12:20:55.634Z,0.35
2023-02-19T12:23:52.171Z,0.50
2023-02-19T12:26:51.727Z,0.30
2023-02-19T12:29:33.979Z,0.65
2023-02-19T12:32:13.302Z,0.40
2023-02-19T12:34:49.593Z,0.40
2023-02-19T12:37:46.483Z,0.47
2023-02-19T12:40:49.358Z,0.30
2023-02-19T12:43:22.946Z,0.30
2023-02-19T12:46:12.446Z,0.30
2023-02-19T12:48:39.733Z,0.28
2023-02-19T12:51:37.196Z,0.30
2023-02-19T12:54:15.231Z,0.20
2023-02-19T12:57:05.835Z,0.63
2023-02-19T12:59:42.007Z,0.40
2023-02-19T13:02:28.051Z,0.28
2023-02-19T13:05:11.245Z,0.38
2023-02-19T13:07:44.523Z,0.40
2023-02-19T13:10:30.908Z,0.40
2023-02-19T13:13:03.898Z,0.50
2023-02-19T13:15:45.318Z,0.40
2023-02-19T13:18:30.041Z,0.30
2023-02-19T13:20:57.644Z,0.30
2023-02-19T13:23:47.770Z,0.40
2023-02-19T13:26:45.607Z,0.28
2023-02-19T13:29:33.150Z,0.32
2023-02-19T13:32:12.491Z,0.30
2023-02-19T13:34:47.787Z,0.30
2023-02-19T13:37:17.018Z,0.50
2023-02-19T13:39:50.579Z,0.45
2023-02-19T13:42:31.187Z,0.30
2023-02-19T13:44:59.317Z,0.60
2023-02-19T13:47:49.864Z,0.40
2023-02-19T13:50:25.908Z,0.50
2023-02-19T13:52:54.780Z,0.30
2023-02-19T13:55:44.198Z,0.40
2023-02-19T13:58:33.465Z,0.50
2023-02-19T14:01:05.316Z,0.40
2023-02-19T14:03:55.620Z,0.70
2023-02-19T14:06:23.064Z,0.32
2023-02-19T14:08:58.552Z,0.57
2023-02-19T14:11:44.267Z,0.30
2023-02-19T14:14:26.700Z,0.50
2023-02-19T14:17:17.731Z,0.40
2023-02-19T14:19:50.800Z,0.52
2023-02-19T14:22:50.211Z,0.80
2023-02-19T14:25:57.163Z,0.50
2023-02-19T14:28:35.551Z,0.50
2023-02-19T14:31:32.317Z,0.63
2023-02-19T14:34:22.935Z,0.60
2023-02-19T14:36:53.216Z,0.50
2023-02-19T14:39:27.811Z,0.60
2023-02-19T14:44:41.304Z,0.70
2023-02-19T14:47:18.866Z,1.30
2023-02-19T14:49:53.714Z,0.73
2023-02-19T14:52:29.010Z,0.47
2023-02-19T14:54:58.750Z,0.95
2023-02-19T14:57:30.455Z,0.70
2023-02-19T15:00:01.887Z,0.50
2023-02-19T15:02:32.478Z,0.50
2023-02-19T15:04:59.953Z,0.50
2023-02-19T15:07:33.960Z,0.40
2023-02-19T15:10:05.849Z,0.98
2023-02-19T15:12:45.637Z,0.70
2023-02-19T15:15:22.130Z,0.50
2023-02-19T15:17:51.264Z,0.60
2023-02-19T15:20:22.666Z,0.85
2023-02-19T15:22:50.351Z,0.85
2023-02-19T15:25:21.040Z,0.60
2023-02-19T15:27:48.864Z,0.60
2023-02-19T15:30:29.498Z,0.65
2023-02-19T15:33:00.138Z,0.68
2023-02-19T15:35:29.055Z,0.55
2023-02-19T15:37:56.825Z,0.70
2023-02-19T15:40:30.656Z,0.60
2023-02-19T15:43:00.125Z,0.65
2023-02-19T15:45:37.759Z,0.50
2023-02-19T15:48:18.888Z,0.73
2023-02-19T15:50:54.802Z,0.80
2023-02-19T15:53:31.466Z,0.60
2023-02-19T15:56:01.692Z,0.63
2023-02-19T15:58:47.272Z,0.70
2023-02-19T16:01:27.798Z,0.73
2023-02-19T16:03:55.865Z,1.30
2023-02-19T16:06:25.754Z,0.98
2023-02-19T16:08:53.002Z,0.75
2023-02-19T16:11:23.406Z,0.68
2023-02-19T16:13:52.029Z,0.70
2023-02-19T16:16:28.306Z,0.60
2023-02-19T16:18:56.712Z,0.88
2023-02-19T16:21:26.926Z,0.70
2023-02-19T16:24:06.791Z,0.47
2023-02-19T16:26:41.703Z,0.50
2023-02-19T16:29:33.021Z,0.30
2023-02-19T16:32:14.967Z,0.50
2023-02-19T16:34:50.683Z,0.60
2023-02-19T16:37:39.011Z,0.60
2023-02-19T16:40:09.211Z,0.80
2023-02-19T16:42:57.661Z,0.70
2023-02-19T16:45:27.539Z,1.02
2023-02-19T16:47:55.022Z,1.35
2023-02-19T16:50:25.024Z,0.60
2023-02-19T16:53:00.152Z,1.75
2023-02-19T16:55:29.421Z,0.60
2023-02-19T16:57:56.822Z,0.70
2023-02-19T17:00:26.646Z,1.15
2023-02-19T17:02:59.920Z,1.42
2023-02-19T17:05:30.832Z,1.27
2023-02-19T17:07:58.381Z,1.35
2023-02-19T17:10:27.864Z,1.33
2023-02-19T17:12:57.017Z,2.20
2023-02-19T17:15:25.497Z,3.97
2023-02-19T17:17:52.762Z,4.43
2023-02-19T17:20:27.435Z,3.20
2023-02-19T17:22:55.891Z,2.10
2023-02-19T17:25:24.304Z,1.55
2023-02-19T17:27:51.928Z,1.85
2023-02-19T17:30:32.032Z,1.27
2023-02-19T17:32:59.605Z,1.33
2023-02-19T17:35:26.946Z,1.55
2023-02-19T17:37:54.586Z,1.27
2023-02-19T17:40:33.563Z,2.17
2023-02-19T17:43:01.751Z,1.77
2023-02-19T17:45:29.641Z,1.55
2023-02-19T17:47:57.254Z,2.20
2023-02-19T17:50:27.665Z,1.80
2023-02-19T17:52:55.259Z,2.47
2023-02-19T17:55:22.712Z,2.45
2023-02-19T17:57:51.324Z,2.50
2023-02-19T18:00:22.240Z,2.33
2023-02-19T18:02:49.592Z,2.70
2023-02-19T18:05:17.625Z,2.20
2023-02-19T18:07:46.630Z,3.15
2023-02-19T18:10:15.215Z,1.80
2023-02-19T18:12:42.529Z,1.67
2023-02-19T18:15:21.107Z,1.42
2023-02-19T18:17:48.608Z,0.90
2023-02-19T18:20:22.353Z,1.60
2023-02-19T18:22:50.345Z,1.45
2023-02-19T18:25:19.247Z,1.20
2023-02-19T18:27:47.107Z,1.15
2023-02-19T18:30:17.713Z,1.40
2023-02-19T18:32:48.165Z,1.75
2023-02-19T18:35:18.035Z,1.65
2023-02-19T18:37:45.915Z,2.50
2023-02-19T18:40:13.434Z,1.60
2023-02-19T18:42:41.069Z,1.58
2023-02-19T18:45:08.524Z,2.28
2023-02-19T18:47:35.904Z,1.80
2023-02-19T18:50:05.985Z,1.80
2023-02-19T18:52:33.223Z,1.67
2023-02-19T18:55:00.733Z,1.95
2023-02-19T18:57:27.922Z,1.65
2023-02-19T18:59:55.127Z,1.58
2023-02-19T19:02:22.372Z,2.40
2023-02-19T19:04:54.307Z,2.33
2023-02-19T19:07:21.824Z,1.98
2023-02-19T19:09:49.104Z,2.17
2023-02-19T19:12:17.919Z,3.33
2023-02-19T19:14:45.430Z,2.70
2023-02-19T19:17:12.771Z,2.53
2023-02-19T19:19:41.336Z,2.20
2023-02-19T19:22:08.821Z,2.08
2023-02-19T19:24:36.480Z,2.08
2023-02-19T19:27:03.767Z,3.30
2023-02-19T19:29:31.152Z,4.10
2023-02-19T19:31:59.144Z,3.80
2023-02-19T19:34:27.115Z,2.83
2023-02-19T19:36:54.330Z,3.05
2023-02-19T19:39:21.695Z,1.63
2023-02-19T19:41:57.017Z,1.33
2023-02-19T19:44:24.215Z,1.67
2023-02-19T19:46:51.478Z,1.90
2023-02-19T19:49:19.815Z,2.35
2023-02-19T19:51:47.648Z,1.80
2023-02-19T19:54:15.875Z,2.03
2023-02-19T19:56:45.603Z,1.55
2023-02-19T19:59:15.972Z,2.15
2023-02-19T20:01:53.502Z,2.22
2023-02-19T20:04:22.412Z,1.75
2023-02-19T20:06:50.248Z,1.23
2023-02-19T20:09:18.690Z,2.53
2023-02-19T20:11:48.103Z,2.00
2023-02-19T20:14:17.234Z,2.45
2023-02-19T20:16:44.936Z,3.10
2023-02-19T20:19:12.255Z,2.83
2023-02-19T20:21:39.575Z,3.70
2023-02-19T20:24:07.046Z,3.38
2023-02-19T20:26:34.326Z,2.88
2023-02-19T20:29:04.564Z,2.30
2023-02-19T20:31:32.533Z,2.92
2023-02-19T20:34:00.598Z,2.97
2023-02-19T20:36:29.423Z,2.30
2023-02-19T20:38:56.896Z,2.22
2023-02-19T20:41:24.160Z,2.50
2023-02-19T20:43:51.452Z,3.22
2023-02-19T20:46:18.678Z,2.72
2023-02-19T20:48:46.182Z,2.35
2023-02-19T20:51:13.458Z,3.33
2023-02-19T20:53:42.421Z,3.13
2023-02-19T20:56:11.597Z,2.85
2023-02-19T20:58:42.480Z,4.60
2023-02-19T21:01:11.748Z,3.13
2023-02-19T21:03:38.977Z,3.03
2023-02-19T21:06:06.517Z,3.65
2023-02-19T21:08:33.797Z,3.58
2023-02-19T21:11:01.007Z,3.17
2023-02-19T21:13:30.173Z,3.15
2023-02-19T21:15:57.537Z,2.83
2023-02-19T21:18:24.908Z,3.10
2023-02-19T21:20:52.324Z,2.92
2023-02-19T21:23:19.610Z,2.88
2023-02-19T21:25:46.831Z,2.58
2023-02-19T21:28:14.117Z,2.75
2023-02-19T21:30:41.406Z,2.53
2023-02-19T21:33:08.720Z,2.08
2023-02-19T21:35:36.094Z,1.95
2023-02-19T21:38:03.617Z,3.00
2023-02-19T21:40:32.108Z,1.75
2023-02-19T21:42:59.528Z,2.88
2023-02-19T21:45:26.851Z,2.30
2023-02-19T21:47:55.107Z,2.42
2023-02-19T21:50:23.045Z,2.60
2023-02-19T21:52:50.351Z,2.25
2023-02-19T21:55:17.589Z,1.60
2023-02-19T21:57:44.888Z,1.83
2023-02-19T22:00:12.839Z,2.17
2023-02-19T22:02:40.027Z,2.65
2023-02-19T22:05:07.644Z,3.10
2023-02-19T22:07:34.952Z,1.38
2023-02-19T22:10:02.235Z,1.85
2023-02-19T22:12:29.483Z,2.05
2023-02-19T22:14:56.692Z,1.55
2023-02-19T22:17:24.007Z,1.98
2023-02-19T22:19:51.244Z,2.30
2023-02-19T22:22:18.613Z,1.90
2023-02-19T22:24:45.876Z,1.55
2023-02-19T22:27:13.074Z,1.48
2023-02-19T22:29:40.246Z,1.95
2023-02-19T22:32:07.864Z,1.85
2023-02-19T22:34:39.483Z,2.20
2023-02-19T22:37:06.791Z,1.65
2023-02-19T22:39:34.208Z,2.95
2023-02-19T22:42:01.433Z,1.65
2023-02-19T22:44:29.052Z,1.33
2023-02-19T22:46:57.122Z,1.33
2023-02-19T22:49:24.882Z,1.73
2023-02-19T22:52:00.295Z,1.38
2023-02-19T22:54:27.680Z,1.75
2023-02-19T22:56:55.398Z,1.88
2023-02-19T22:59:23.378Z,1.88
2023-02-19T23:01:50.789Z,1.38
2023-02-19T23:04:19.320Z,2.30
2023-02-19T23:06:46.722Z,2.13
2023-02-19T23:09:25.146Z,1.55
2023-02-19T23:11:52.758Z,1.63
2023-02-19T23:14:21.643Z,1.23
2023-02-19T23:16:49.009Z,2.30
2023-02-19T23:19:16.584Z,1.83
2023-02-19T23:21:45.353Z,1.65
2023-02-19T23:24:13.501Z,1.77
2023-02-19T23:26:48.897Z,1.33
2023-02-19T23:29:18.480Z,1.67
2023-02-19T23:31:45.771Z,1.65
2023-02-19T23:34:13.569Z,1.50
2023-02-19T23:36:45.502Z,1.38
2023-02-19T23:39:16.092Z,1.65
2023-02-19T23:41:51.731Z,2.22
2023-02-19T23:44:20.322Z,1.42
2023-02-19T23:46:48.152Z,1.35
2023-02-19T23:49:15.864Z,1.80
2023-02-19T23:51:43.164Z,1.30
2023-02-19T23:54:11.028Z,1.20
2023-02-19T23:56:38.241Z,1.10
2023-02-19T23:59:06.525Z,1.40
